sensor_id;sensor_type;location;lat;lon;timestamp;P1;durP1;ratioP1;P2;durP2;ratioP2
33108;SDS011;19481;51.118;6.940;2023-06-22T00:04:29;2.40;;;1.67;;
33108;SDS011;19481;51.118;6.940;2023-06-22T00:09:31;4.63;;;2.28;;
33108;SDS011;19481;51.118;6.940;2023-06-22T00:14:34;3.17;;;1.90;;
33108;SDS011;19481;51.118;6.940;2023-06-22T00:19:35;2.90;;;2.17;;
33108;SDS011;19481;51.118;6.940;2023-06-22T00:24:40;1.95;;;1.77;;
33108;SDS011;19481;51.118;6.940;2023-06-22T00:29:43;3.08;;;1.73;;
33108;SDS011;19481;51.118;6.940;2023-06-22T00:34:45;2.38;;;1.77;;
33108;SDS011;19481;51.118;6.940;2023-06-22T00:39:46;3.50;;;1.90;;
33108;SDS011;19481;51.118;6.940;2023-06-22T00:44:49;1.85;;;1.75;;
33108;SDS011;19481;51.118;6.940;2023-06-22T00:49:51;3.70;;;1.88;;
33108;SDS011;19481;51.118;6.940;2023-06-22T00:54:52;3.05;;;1.95;;
33108;SDS011;19481;51.118;6.940;2023-06-22T00:59:56;2.35;;;1.63;;
33108;SDS011;19481;51.118;6.940;2023-06-22T01:04:58;6.32;;;1.67;;
33108;SDS011;19481;51.118;6.940;2023-06-22T01:10:02;3.65;;;1.70;;
33108;SDS011;19481;51.118;6.940;2023-06-22T01:15:11;2.00;;;1.80;;
33108;SDS011;19481;51.118;6.940;2023-06-22T01:20:20;2.58;;;1.95;;
33108;SDS011;19481;51.118;6.940;2023-06-22T01:25:26;2.35;;;2.05;;
33108;SDS011;19481;51.118;6.940;2023-06-22T01:30:34;2.45;;;1.70;;
33108;SDS011;19481;51.118;6.940;2023-06-22T01:35:37;2.85;;;2.08;;
33108;SDS011;19481;51.118;6.940;2023-06-22T01:40:39;1.70;;;1.60;;
33108;SDS011;19481;51.118;6.940;2023-06-22T01:45:43;2.08;;;1.83;;
33108;SDS011;19481;51.118;6.940;2023-06-22T01:50:45;6.57;;;2.08;;
33108;SDS011;19481;51.118;6.940;2023-06-22T01:55:47;2.17;;;1.92;;
33108;SDS011;19481;51.118;6.940;2023-06-22T02:00:53;2.80;;;1.95;;
33108;SDS011;19481;51.118;6.940;2023-06-22T02:06:01;5.07;;;2.00;;
33108;SDS011;19481;51.118;6.940;2023-06-22T02:11:05;3.20;;;1.85;;
33108;SDS011;19481;51.118;6.940;2023-06-22T02:16:10;3.90;;;2.00;;
33108;SDS011;19481;51.118;6.940;2023-06-22T02:21:13;3.00;;;2.20;;
33108;SDS011;19481;51.118;6.940;2023-06-22T02:26:17;2.30;;;2.10;;
33108;SDS011;19481;51.118;6.940;2023-06-22T02:31:20;3.20;;;2.30;;
33108;SDS011;19481;51.118;6.940;2023-06-22T02:36:22;2.58;;;2.22;;
33108;SDS011;19481;51.118;6.940;2023-06-22T02:41:24;3.25;;;2.10;;
33108;SDS011;19481;51.118;6.940;2023-06-22T02:46:27;2.95;;;2.03;;
33108;SDS011;19481;51.118;6.940;2023-06-22T02:51:30;2.40;;;2.08;;
33108;SDS011;19481;51.118;6.940;2023-06-22T02:56:34;2.80;;;2.00;;
33108;SDS011;19481;51.118;6.940;2023-06-22T03:01:38;2.58;;;2.38;;
33108;SDS011;19481;51.118;6.940;2023-06-22T03:06:41;2.53;;;2.10;;
33108;SDS011;19481;51.118;6.940;2023-06-22T03:11:42;3.53;;;2.20;;
33108;SDS011;19481;51.118;6.940;2023-06-22T03:16:45;3.22;;;2.10;;
33108;SDS011;19481;51.118;6.940;2023-06-22T03:21:47;4.35;;;1.95;;
33108;SDS011;19481;51.118;6.940;2023-06-22T03:26:49;2.28;;;1.88;;
33108;SDS011;19481;51.118;6.940;2023-06-22T03:31:52;2.58;;;2.20;;
33108;SDS011;19481;51.118;6.940;2023-06-22T03:36:53;3.15;;;2.30;;
33108;SDS011;19481;51.118;6.940;2023-06-22T03:41:55;4.55;;;2.13;;
33108;SDS011;19481;51.118;6.940;2023-06-22T03:46:58;2.65;;;2.22;;
33108;SDS011;19481;51.118;6.940;2023-06-22T03:51:59;3.70;;;2.17;;
33108;SDS011;19481;51.118;6.940;2023-06-22T03:57:02;5.20;;;2.38;;
33108;SDS011;19481;51.118;6.940;2023-06-22T04:02:05;2.55;;;2.35;;
33108;SDS011;19481;51.118;6.940;2023-06-22T04:07:06;2.42;;;2.17;;
33108;SDS011;19481;51.118;6.940;2023-06-22T04:12:08;4.22;;;2.13;;
33108;SDS011;19481;51.118;6.940;2023-06-22T04:17:11;4.28;;;2.20;;
33108;SDS011;19481;51.118;6.940;2023-06-22T04:22:14;3.60;;;2.13;;
33108;SDS011;19481;51.118;6.940;2023-06-22T04:27:15;2.45;;;1.95;;
33108;SDS011;19481;51.118;6.940;2023-06-22T04:32:20;5.35;;;2.70;;
33108;SDS011;19481;51.118;6.940;2023-06-22T04:37:21;2.58;;;1.90;;
33108;SDS011;19481;51.118;6.940;2023-06-22T04:42:25;4.95;;;2.20;;
33108;SDS011;19481;51.118;6.940;2023-06-22T04:47:28;3.25;;;2.55;;
33108;SDS011;19481;51.118;6.940;2023-06-22T04:52:30;5.85;;;2.60;;
33108;SDS011;19481;51.118;6.940;2023-06-22T04:57:32;4.82;;;2.80;;
33108;SDS011;19481;51.118;6.940;2023-06-22T05:02:35;5.10;;;2.55;;
33108;SDS011;19481;51.118;6.940;2023-06-22T05:07:37;2.83;;;2.40;;
33108;SDS011;19481;51.118;6.940;2023-06-22T05:12:40;10.65;;;2.75;;
33108;SDS011;19481;51.118;6.940;2023-06-22T05:17:43;6.57;;;2.70;;
33108;SDS011;19481;51.118;6.940;2023-06-22T05:22:46;4.47;;;2.60;;
33108;SDS011;19481;51.118;6.940;2023-06-22T05:27:47;5.90;;;2.72;;
33108;SDS011;19481;51.118;6.940;2023-06-22T05:32:52;5.93;;;2.63;;
33108;SDS011;19481;51.118;6.940;2023-06-22T05:37:53;6.78;;;2.85;;
33108;SDS011;19481;51.118;6.940;2023-06-22T05:42:55;3.95;;;2.80;;
33108;SDS011;19481;51.118;6.940;2023-06-22T05:47:58;3.70;;;2.83;;
33108;SDS011;19481;51.118;6.940;2023-06-22T05:52:59;4.82;;;3.35;;
33108;SDS011;19481;51.118;6.940;2023-06-22T05:58:02;7.32;;;3.25;;
33108;SDS011;19481;51.118;6.940;2023-06-22T06:03:06;6.47;;;3.25;;
33108;SDS011;19481;51.118;6.940;2023-06-22T06:08:07;12.00;;;5.40;;
33108;SDS011;19481;51.118;6.940;2023-06-22T06:13:11;18.90;;;5.53;;
33108;SDS011;19481;51.118;6.940;2023-06-22T06:18:14;13.02;;;5.25;;
33108;SDS011;19481;51.118;6.940;2023-06-22T06:23:15;8.93;;;5.53;;
33108;SDS011;19481;51.118;6.940;2023-06-22T06:28:17;14.68;;;6.07;;
33108;SDS011;19481;51.118;6.940;2023-06-22T06:33:20;8.25;;;5.40;;
33108;SDS011;19481;51.118;6.940;2023-06-22T06:38:21;9.45;;;5.50;;
33108;SDS011;19481;51.118;6.940;2023-06-22T06:43:23;11.43;;;6.15;;
33108;SDS011;19481;51.118;6.940;2023-06-22T06:48:26;10.82;;;5.78;;
33108;SDS011;19481;51.118;6.940;2023-06-22T06:53:28;8.75;;;6.22;;
33108;SDS011;19481;51.118;6.940;2023-06-22T06:58:29;7.88;;;6.40;;
33108;SDS011;19481;51.118;6.940;2023-06-22T07:03:32;9.25;;;6.10;;
33108;SDS011;19481;51.118;6.940;2023-06-22T07:08:34;10.45;;;6.43;;
33108;SDS011;19481;51.118;6.940;2023-06-22T07:13:36;9.88;;;6.28;;
33108;SDS011;19481;51.118;6.940;2023-06-22T07:18:40;11.25;;;6.70;;
33108;SDS011;19481;51.118;6.940;2023-06-22T07:23:42;12.50;;;7.10;;
33108;SDS011;19481;51.118;6.940;2023-06-22T07:28:43;9.77;;;6.47;;
33108;SDS011;19481;51.118;6.940;2023-06-22T07:33:46;9.15;;;6.20;;
33108;SDS011;19481;51.118;6.940;2023-06-22T07:38:48;9.23;;;6.35;;
33108;SDS011;19481;51.118;6.940;2023-06-22T07:43:49;8.20;;;6.30;;
33108;SDS011;19481;51.118;6.940;2023-06-22T07:48:52;12.45;;;5.65;;
33108;SDS011;19481;51.118;6.940;2023-06-22T07:53:54;7.78;;;5.93;;
33108;SDS011;19481;51.118;6.940;2023-06-22T07:58:55;9.40;;;5.63;;
33108;SDS011;19481;51.118;6.940;2023-06-22T08:04:00;8.30;;;5.40;;
33108;SDS011;19481;51.118;6.940;2023-06-22T08:09:02;5.45;;;4.47;;
33108;SDS011;19481;51.118;6.940;2023-06-22T08:14:04;6.00;;;4.18;;
33108;SDS011;19481;51.118;6.940;2023-06-22T08:19:07;6.85;;;4.35;;
33108;SDS011;19481;51.118;6.940;2023-06-22T08:24:08;6.43;;;4.72;;
33108;SDS011;19481;51.118;6.940;2023-06-22T08:29:10;4.72;;;3.85;;
33108;SDS011;19481;51.118;6.940;2023-06-22T08:34:13;3.92;;;3.53;;
33108;SDS011;19481;51.118;6.940;2023-06-22T08:39:15;4.65;;;3.70;;
33108;SDS011;19481;51.118;6.940;2023-06-22T08:44:18;5.68;;;3.10;;
33108;SDS011;19481;51.118;6.940;2023-06-22T08:49:21;4.32;;;3.35;;
33108;SDS011;19481;51.118;6.940;2023-06-22T08:54:23;5.38;;;3.40;;
33108;SDS011;19481;51.118;6.940;2023-06-22T08:59:24;4.30;;;3.10;;
33108;SDS011;19481;51.118;6.940;2023-06-22T09:04:27;3.78;;;2.90;;
33108;SDS011;19481;51.118;6.940;2023-06-22T09:09:29;3.80;;;3.20;;
33108;SDS011;19481;51.118;6.940;2023-06-22T09:14:31;7.43;;;3.70;;
33108;SDS011;19481;51.118;6.940;2023-06-22T09:19:34;6.20;;;3.63;;
33108;SDS011;19481;51.118;6.940;2023-06-22T09:24:35;5.88;;;3.45;;
33108;SDS011;19481;51.118;6.940;2023-06-22T09:29:37;4.05;;;3.55;;
33108;SDS011;19481;51.118;6.940;2023-06-22T09:34:40;6.10;;;3.63;;
33108;SDS011;19481;51.118;6.940;2023-06-22T09:39:41;7.30;;;3.80;;
33108;SDS011;19481;51.118;6.940;2023-06-22T09:44:43;3.97;;;3.67;;
33108;SDS011;19481;51.118;6.940;2023-06-22T09:49:46;4.93;;;3.58;;
33108;SDS011;19481;51.118;6.940;2023-06-22T09:54:47;8.80;;;3.90;;
33108;SDS011;19481;51.118;6.940;2023-06-22T09:59:49;4.72;;;4.10;;
33108;SDS011;19481;51.118;6.940;2023-06-22T10:04:52;6.28;;;4.05;;
33108;SDS011;19481;51.118;6.940;2023-06-22T10:09:53;6.68;;;4.60;;
33108;SDS011;19481;51.118;6.940;2023-06-22T10:14:55;7.32;;;4.50;;
33108;SDS011;19481;51.118;6.940;2023-06-22T10:19:58;7.05;;;4.57;;
33108;SDS011;19481;51.118;6.940;2023-06-22T10:25:00;8.13;;;4.82;;
33108;SDS011;19481;51.118;6.940;2023-06-22T10:30:02;5.03;;;4.07;;
33108;SDS011;19481;51.118;6.940;2023-06-22T10:35:07;5.85;;;4.30;;
33108;SDS011;19481;51.118;6.940;2023-06-22T10:40:11;9.68;;;5.05;;
33108;SDS011;19481;51.118;6.940;2023-06-22T10:45:13;11.23;;;4.85;;
33108;SDS011;19481;51.118;6.940;2023-06-22T10:50:17;9.48;;;6.00;;
33108;SDS011;19481;51.118;6.940;2023-06-22T10:55:20;10.15;;;5.88;;
33108;SDS011;19481;51.118;6.940;2023-06-22T11:00:21;9.65;;;6.25;;
33108;SDS011;19481;51.118;6.940;2023-06-22T11:05:24;10.93;;;6.50;;
33108;SDS011;19481;51.118;6.940;2023-06-22T11:10:26;8.70;;;6.80;;
33108;SDS011;19481;51.118;6.940;2023-06-22T11:15:28;10.32;;;7.07;;
33108;SDS011;19481;51.118;6.940;2023-06-22T11:20:31;10.10;;;7.43;;
33108;SDS011;19481;51.118;6.940;2023-06-22T11:25:34;13.52;;;7.25;;
33108;SDS011;19481;51.118;6.940;2023-06-22T11:30:38;11.60;;;6.63;;
33108;SDS011;19481;51.118;6.940;2023-06-22T11:35:41;13.70;;;7.88;;
33108;SDS011;19481;51.118;6.940;2023-06-22T11:40:42;12.98;;;8.18;;
33108;SDS011;19481;51.118;6.940;2023-06-22T11:45:44;10.48;;;7.13;;
33108;SDS011;19481;51.118;6.940;2023-06-22T11:50:47;10.68;;;7.32;;
33108;SDS011;19481;51.118;6.940;2023-06-22T11:55:48;9.27;;;7.82;;
33108;SDS011;19481;51.118;6.940;2023-06-22T12:00:50;12.75;;;9.30;;
33108;SDS011;19481;51.118;6.940;2023-06-22T12:05:54;11.45;;;8.13;;
33108;SDS011;19481;51.118;6.940;2023-06-22T12:10:55;9.75;;;7.00;;
33108;SDS011;19481;51.118;6.940;2023-06-22T12:15:57;11.60;;;6.75;;
33108;SDS011;19481;51.118;6.940;2023-06-22T12:21:00;8.82;;;5.53;;
33108;SDS011;19481;51.118;6.940;2023-06-22T12:26:01;6.57;;;5.45;;
33108;SDS011;19481;51.118;6.940;2023-06-22T12:31:03;10.73;;;5.85;;
33108;SDS011;19481;51.118;6.940;2023-06-22T12:36:06;8.52;;;5.30;;
33108;SDS011;19481;51.118;6.940;2023-06-22T12:41:07;9.85;;;5.38;;
33108;SDS011;19481;51.118;6.940;2023-06-22T12:46:09;8.20;;;5.63;;
33108;SDS011;19481;51.118;6.940;2023-06-22T12:51:12;6.60;;;5.07;;
33108;SDS011;19481;51.118;6.940;2023-06-22T12:56:20;7.32;;;5.30;;
33108;SDS011;19481;51.118;6.940;2023-06-22T13:01:22;12.35;;;6.03;;
33108;SDS011;19481;51.118;6.940;2023-06-22T13:06:25;8.57;;;5.90;;
33108;SDS011;19481;51.118;6.940;2023-06-22T13:11:27;12.98;;;6.43;;
33108;SDS011;19481;51.118;6.940;2023-06-22T13:16:29;5.68;;;5.07;;
33108;SDS011;19481;51.118;6.940;2023-06-22T13:21:32;6.70;;;4.95;;
33108;SDS011;19481;51.118;6.940;2023-06-22T13:26:34;10.95;;;5.40;;
33108;SDS011;19481;51.118;6.940;2023-06-22T13:31:35;7.28;;;4.88;;
33108;SDS011;19481;51.118;6.940;2023-06-22T13:36:39;7.25;;;5.07;;
33108;SDS011;19481;51.118;6.940;2023-06-22T13:41:41;5.53;;;4.85;;
33108;SDS011;19481;51.118;6.940;2023-06-22T13:46:43;5.50;;;4.93;;
33108;SDS011;19481;51.118;6.940;2023-06-22T13:51:46;6.68;;;4.80;;
33108;SDS011;19481;51.118;6.940;2023-06-22T13:56:48;7.13;;;4.53;;
33108;SDS011;19481;51.118;6.940;2023-06-22T14:01:50;5.55;;;4.20;;
33108;SDS011;19481;51.118;6.940;2023-06-22T14:06:53;7.18;;;4.25;;
33108;SDS011;19481;51.118;6.940;2023-06-22T14:11:55;4.60;;;3.75;;
33108;SDS011;19481;51.118;6.940;2023-06-22T14:16:57;3.45;;;3.15;;
33108;SDS011;19481;51.118;6.940;2023-06-22T14:22:00;7.22;;;3.97;;
33108;SDS011;19481;51.118;6.940;2023-06-22T14:27:01;7.20;;;4.70;;
33108;SDS011;19481;51.118;6.940;2023-06-22T14:32:05;7.68;;;4.93;;
33108;SDS011;19481;51.118;6.940;2023-06-22T14:37:09;4.75;;;3.97;;
33108;SDS011;19481;51.118;6.940;2023-06-22T14:42:10;5.93;;;3.83;;
33108;SDS011;19481;51.118;6.940;2023-06-22T14:47:12;5.97;;;4.38;;
33108;SDS011;19481;51.118;6.940;2023-06-22T14:52:15;6.40;;;4.53;;
33108;SDS011;19481;51.118;6.940;2023-06-22T14:57:16;7.65;;;3.92;;
33108;SDS011;19481;51.118;6.940;2023-06-22T15:02:20;6.93;;;4.65;;
33108;SDS011;19481;51.118;6.940;2023-06-22T15:07:22;8.35;;;4.03;;
33108;SDS011;19481;51.118;6.940;2023-06-22T15:12:24;7.25;;;3.70;;
33108;SDS011;19481;51.118;6.940;2023-06-22T15:17:26;4.97;;;3.75;;
33108;SDS011;19481;51.118;6.940;2023-06-22T15:22:30;4.35;;;3.05;;
33108;SDS011;19481;51.118;6.940;2023-06-22T15:27:32;5.75;;;3.80;;
33108;SDS011;19481;51.118;6.940;2023-06-22T15:32:33;6.05;;;3.53;;
33108;SDS011;19481;51.118;6.940;2023-06-22T15:37:36;3.90;;;3.45;;
33108;SDS011;19481;51.118;6.940;2023-06-22T15:42:38;4.88;;;3.42;;
33108;SDS011;19481;51.118;6.940;2023-06-22T15:47:40;5.80;;;4.05;;
33108;SDS011;19481;51.118;6.940;2023-06-22T15:52:43;6.40;;;4.78;;
33108;SDS011;19481;51.118;6.940;2023-06-22T15:57:47;6.55;;;4.28;;
33108;SDS011;19481;51.118;6.940;2023-06-22T16:02:49;9.07;;;4.32;;
33108;SDS011;19481;51.118;6.940;2023-06-22T16:07:54;5.65;;;5.00;;
33108;SDS011;19481;51.118;6.940;2023-06-22T16:12:56;7.95;;;4.75;;
33108;SDS011;19481;51.118;6.940;2023-06-22T16:17:58;5.10;;;4.00;;
33108;SDS011;19481;51.118;6.940;2023-06-22T16:23:01;8.45;;;4.13;;
33108;SDS011;19481;51.118;6.940;2023-06-22T16:28:02;5.63;;;4.35;;
33108;SDS011;19481;51.118;6.940;2023-06-22T16:33:04;7.35;;;4.40;;
33108;SDS011;19481;51.118;6.940;2023-06-22T16:38:07;5.15;;;4.55;;
33108;SDS011;19481;51.118;6.940;2023-06-22T16:43:08;5.53;;;4.03;;
33108;SDS011;19481;51.118;6.940;2023-06-22T16:48:10;5.05;;;4.00;;
33108;SDS011;19481;51.118;6.940;2023-06-22T16:53:13;8.40;;;4.30;;
33108;SDS011;19481;51.118;6.940;2023-06-22T16:58:17;3.83;;;3.42;;
33108;SDS011;19481;51.118;6.940;2023-06-22T17:03:26;5.50;;;3.78;;
33108;SDS011;19481;51.118;6.940;2023-06-22T17:08:31;6.30;;;4.20;;
33108;SDS011;19481;51.118;6.940;2023-06-22T17:13:34;5.75;;;4.22;;
33108;SDS011;19481;51.118;6.940;2023-06-22T17:18:36;4.45;;;4.05;;
33108;SDS011;19481;51.118;6.940;2023-06-22T17:23:41;4.55;;;4.15;;
33108;SDS011;19481;51.118;6.940;2023-06-22T17:28:46;7.38;;;4.47;;
33108;SDS011;19481;51.118;6.940;2023-06-22T17:33:48;6.10;;;3.70;;
33108;SDS011;19481;51.118;6.940;2023-06-22T17:38:51;5.40;;;3.97;;
33108;SDS011;19481;51.118;6.940;2023-06-22T17:43:59;4.25;;;3.10;;
33108;SDS011;19481;51.118;6.940;2023-06-22T17:49:01;6.10;;;3.35;;
33108;SDS011;19481;51.118;6.940;2023-06-22T17:54:04;4.53;;;2.80;;
33108;SDS011;19481;51.118;6.940;2023-06-22T17:59:06;2.80;;;2.50;;
33108;SDS011;19481;51.118;6.940;2023-06-22T18:04:08;3.97;;;3.03;;
33108;SDS011;19481;51.118;6.940;2023-06-22T18:09:13;3.78;;;2.83;;
33108;SDS011;19481;51.118;6.940;2023-06-22T18:14:16;3.97;;;2.70;;
33108;SDS011;19481;51.118;6.940;2023-06-22T18:19:19;4.70;;;2.95;;
33108;SDS011;19481;51.118;6.940;2023-06-22T18:24:22;7.03;;;3.10;;
33108;SDS011;19481;51.118;6.940;2023-06-22T18:29:24;6.35;;;3.65;;
33108;SDS011;19481;51.118;6.940;2023-06-22T18:34:27;7.90;;;3.13;;
33108;SDS011;19481;51.118;6.940;2023-06-22T18:39:30;4.88;;;3.95;;
33108;SDS011;19481;51.118;6.940;2023-06-22T18:44:33;5.43;;;4.28;;
33108;SDS011;19481;51.118;6.940;2023-06-22T18:49:45;5.30;;;4.13;;
33108;SDS011;19481;51.118;6.940;2023-06-22T18:54:49;5.05;;;4.15;;
33108;SDS011;19481;51.118;6.940;2023-06-22T18:59:51;6.57;;;4.45;;
33108;SDS011;19481;51.118;6.940;2023-06-22T19:05:05;10.80;;;4.90;;
33108;SDS011;19481;51.118;6.940;2023-06-22T19:10:24;11.38;;;5.38;;
33108;SDS011;19481;51.118;6.940;2023-06-22T19:15:30;8.32;;;5.22;;
33108;SDS011;19481;51.118;6.940;2023-06-22T19:20:33;6.10;;;4.70;;
33108;SDS011;19481;51.118;6.940;2023-06-22T19:25:36;4.68;;;4.20;;
33108;SDS011;19481;51.118;6.940;2023-06-22T19:30:46;4.30;;;3.70;;
33108;SDS011;19481;51.118;6.940;2023-06-22T19:35:48;9.45;;;4.35;;
33108;SDS011;19481;51.118;6.940;2023-06-22T19:40:52;4.00;;;3.55;;
33108;SDS011;19481;51.118;6.940;2023-06-22T19:45:54;4.63;;;3.38;;
33108;SDS011;19481;51.118;6.940;2023-06-22T19:51:01;2.45;;;2.05;;
33108;SDS011;19481;51.118;6.940;2023-06-22T19:56:05;2.80;;;2.60;;
33108;SDS011;19481;51.118;6.940;2023-06-22T20:01:07;5.28;;;3.15;;
33108;SDS011;19481;51.118;6.940;2023-06-22T20:06:09;3.50;;;3.20;;
33108;SDS011;19481;51.118;6.940;2023-06-22T20:11:13;4.28;;;3.72;;
33108;SDS011;19481;51.118;6.940;2023-06-22T20:16:15;5.63;;;4.13;;
33108;SDS011;19481;51.118;6.940;2023-06-22T20:21:17;4.85;;;3.40;;
33108;SDS011;19481;51.118;6.940;2023-06-22T20:26:20;5.65;;;3.70;;
33108;SDS011;19481;51.118;6.940;2023-06-22T20:31:22;5.05;;;3.28;;
33108;SDS011;19481;51.118;6.940;2023-06-22T20:36:23;4.53;;;3.78;;
33108;SDS011;19481;51.118;6.940;2023-06-22T20:41:26;4.32;;;3.40;;
33108;SDS011;19481;51.118;6.940;2023-06-22T20:46:29;4.53;;;4.10;;
33108;SDS011;19481;51.118;6.940;2023-06-22T20:51:31;4.63;;;4.00;;
33108;SDS011;19481;51.118;6.940;2023-06-22T20:56:34;6.45;;;4.35;;
33108;SDS011;19481;51.118;6.940;2023-06-22T21:01:35;7.15;;;4.68;;
33108;SDS011;19481;51.118;6.940;2023-06-22T21:06:37;5.70;;;4.20;;
33108;SDS011;19481;51.118;6.940;2023-06-22T21:11:40;6.15;;;4.45;;
33108;SDS011;19481;51.118;6.940;2023-06-22T21:16:42;7.45;;;4.47;;
33108;SDS011;19481;51.118;6.940;2023-06-22T21:21:44;6.43;;;4.25;;
33108;SDS011;19481;51.118;6.940;2023-06-22T21:26:47;3.70;;;3.40;;
33108;SDS011;19481;51.118;6.940;2023-06-22T21:31:49;4.70;;;3.97;;
33108;SDS011;19481;51.118;6.940;2023-06-22T21:36:50;5.05;;;3.42;;
33108;SDS011;19481;51.118;6.940;2023-06-22T21:41:53;4.25;;;3.40;;
33108;SDS011;19481;51.118;6.940;2023-06-22T21:46:55;6.68;;;4.07;;
33108;SDS011;19481;51.118;6.940;2023-06-22T21:51:57;5.07;;;4.25;;
33108;SDS011;19481;51.118;6.940;2023-06-22T21:57:00;5.15;;;4.30;;
33108;SDS011;19481;51.118;6.940;2023-06-22T22:02:01;6.63;;;4.50;;
33108;SDS011;19481;51.118;6.940;2023-06-22T22:07:03;5.45;;;4.05;;
33108;SDS011;19481;51.118;6.940;2023-06-22T22:12:08;5.72;;;4.47;;
33108;SDS011;19481;51.118;6.940;2023-06-22T22:17:10;7.05;;;4.10;;
33108;SDS011;19481;51.118;6.940;2023-06-22T22:22:11;4.85;;;4.20;;
33108;SDS011;19481;51.118;6.940;2023-06-22T22:27:15;5.78;;;3.88;;
33108;SDS011;19481;51.118;6.940;2023-06-22T22:32:16;5.13;;;3.90;;
33108;SDS011;19481;51.118;6.940;2023-06-22T22:37:18;5.38;;;4.07;;
33108;SDS011;19481;51.118;6.940;2023-06-22T22:42:21;4.30;;;3.90;;
33108;SDS011;19481;51.118;6.940;2023-06-22T22:47:22;4.78;;;3.97;;
33108;SDS011;19481;51.118;6.940;2023-06-22T22:52:24;5.00;;;4.13;;
33108;SDS011;19481;51.118;6.940;2023-06-22T22:57:30;6.82;;;4.45;;
33108;SDS011;19481;51.118;6.940;2023-06-22T23:02:31;6.80;;;4.90;;
33108;SDS011;19481;51.118;6.940;2023-06-22T23:07:33;9.35;;;5.30;;
33108;SDS011;19481;51.118;6.940;2023-06-22T23:12:36;6.57;;;5.50;;
33108;SDS011;19481;51.118;6.940;2023-06-22T23:17:37;7.38;;;5.30;;
33108;SDS011;19481;51.118;6.940;2023-06-22T23:22:39;6.20;;;4.35;;
33108;SDS011;19481;51.118;6.940;2023-06-22T23:27:42;6.70;;;4.13;;
33108;SDS011;19481;51.118;6.940;2023-06-22T23:32:44;6.25;;;4.47;;
33108;SDS011;19481;51.118;6.940;2023-06-22T23:37:45;7.00;;;4.25;;
33108;SDS011;19481;51.118;6.940;2023-06-22T23:42:48;5.97;;;4.38;;
33108;SDS011;19481;51.118;6.940;2023-06-22T23:47:50;6.20;;;4.28;;
33108;SDS011;19481;51.118;6.940;2023-06-22T23:52:52;5.13;;;4.50;;
33108;SDS011;19481;51.118;6.940;2023-06-22T23:57:55;7.72;;;5.47;;
